Holsworthy, United Kingdom
Current Conditions -  °F | °C
As of 10:20 AM on Tuesday 21 Oct 2014 (Local Time) from EGHQ Reporting Station
Rain Showers Rain Showers  
Wind Chill: 11°   Ceiling: Unl
Heat Index: 11°   Visibility: 6mi
Dew Point:   Wind: 35mph
Humidity: 71%   Direction: 300°WNW
Pressure: 29.91"   Gusts: 46mph
Location:  50.81°N, 4.35°W
Report Text: EGHQ 210920Z 30030G40KT 9999 VCSH SCT032 11/06 Q1013
Loading
Personal Weather Stations






























Interactive Weather Map
Tropical Storm Tracking
New forecast layout! Learn more

10-Day Weather Forecast

Advertisements
Track Severe Weather on mobile